Terminal Aerodrome Forecast
Issued by NWS Milwaukee/Sullivan, WI

Home | Current Version | Previous Version | Text Only | Print | Product List | Glossary On
Versions: 1 2 3 4 5 6 7 8 9 10 11 12 13 14 15 16 17 18 19 20 21 22 23 24 25 26 27 28 29 30 31 32 33 34 35 36 37 38 39 40 41 42 43 44 45 46 47 48 49 50
000
FTUS43 KMKX 020300 AAA
TAFMKE
TAF AMD
KMKE 020300Z 0203/0306 15008KT P6SM OVC080
     FM020700 16008KT 5SM -SHRA BR BKN040 OVC070
     FM021100 16008KT 3SM BR SCT012 BKN030
     FM021600 18008KT P6SM SCT015 BKN040
     FM022000 14008KT P6SM VCTS SCT020 BKN040CB
     FM022300 15009KT 4SM -TSRA BR SCT008 OVC020CB
     FM030200 19012KT 2SM -SHRA VCTS SCT006 OVC012CB=

USA.gov is the U.S. government's official web portal to all federal, state and local government web resources and services.